Flight Track Log - Related Links

Times and Time Zones

All times are in EDT time to prevent confusion due to time zone crossing. See the SWA1688 flight status page for this flight to view local times or setup timezone preferences in your user account.

Time Position Orientation Groundspeed Altitude Reporting Facility
EDT Latitude Longitude Course Direction KTS MPH feet Rate Location/Type
Wed 09:34:49 PM 28.4333 -81.3000 41° Northeast 171 197 700  Level Orlando TRACON
Wed 09:35:25 PM 28.4500 -81.2833 41° Northeast 182 209 2,300 2,750 Climbing Orlando TRACON
Wed 09:36:25 PM 28.5167 -81.2500 24° Northeast 233 268 5,100 3,278 Climbing Orlando TRACON
Wed 09:38:50 PM 28.6931 -81.2903 349° North 286 329 13,500 3,571 Climbing Jacksonville Center
Wed 09:39:50 PM 28.7872 -81.3125 348° North 315 362 17,300 3,600 Climbing Jacksonville Center
Wed 09:40:50 PM 28.8897 -81.3417 346° North 352 405 20,700 3,200 Climbing Jacksonville Center
Wed 09:41:50 PM 28.9964 -81.3636 350° North 387 445 23,700 2,850 Climbing Jacksonville Center
Wed 09:42:50 PM 29.1053 -81.3906 348° North 395 455 26,400 2,600 Climbing Jacksonville Center
Wed 09:43:50 PM 29.2244 -81.4006 356° North 419 482 28,900 2,300 Climbing Jacksonville Center
Wed 09:44:50 PM 29.3436 -81.4156 354° North 433 498 31,000 2,000 Climbing Jacksonville Center
Wed 09:45:50 PM 29.4544 -81.4258 355° North 440 506 32,900 2,150 Climbing Jacksonville Center
Wed 09:46:50 PM 29.5797 -81.4383 355° North 445 512 35,300 2,300 Climbing Jacksonville Center
Wed 09:47:50 PM 29.6967 -81.4508 355° North 440 506 37,500 1,850 Climbing Jacksonville Center
Wed 09:48:50 PM 29.8178 -81.4419 North 434 499 39,000 1,150 Climbing Jacksonville Center
Wed 09:49:50 PM 29.9428 -81.4256 North 434 499 39,800 750 Climbing Jacksonville Center
Wed 09:50:50 PM 30.0681 -81.4142 North 442 509 40,500 600 Climbing Jacksonville Center
Wed 09:51:50 PM 30.2119 -81.3975 North 447 514 41,000 250 Climbing Jacksonville Center
Wed 09:52:50 PM 30.3369 -81.3858 North 458 527 41,000  Level Jacksonville Center
Wed 09:53:50 PM 30.4661 -81.3719 North 458 527 41,000  Level Jacksonville Center
Wed 09:54:50 PM 30.5914 -81.3578 North 458 527 41,000  Level Jacksonville Center
Wed 09:55:50 PM 30.7186 -81.3486 North 458 527 41,000  Level Jacksonville Center
Wed 09:56:50 PM 30.8436 -81.3344 North 458 527 41,000  Level Jacksonville Center
Wed 09:57:50 PM 30.9667 -81.3250 North 453 521 41,000  Level Jacksonville Center
Wed 09:58:50 PM 31.0897 -81.3108 North 448 516 41,000  Level Jacksonville Center
Wed 09:59:50 PM 31.2147 -81.2772 13° North 445 512 41,000  Level Jacksonville Center
Wed 10:00:50 PM 31.3328 -81.2192 23° Northeast 457 526 41,000  Level Jacksonville Center
Wed 10:01:50 PM 31.4489 -81.1539 26° Northeast 457 526 41,000  Level Jacksonville Center
Wed 10:02:50 PM 31.5589 -81.1006 22° Northeast 462 532 41,000  Level Jacksonville Center
Wed 10:03:50 PM 31.6853 -81.0347 24° Northeast 452 520 41,000  Level Jacksonville Center
Wed 10:04:50 PM 31.7950 -80.9811 23° Northeast 457 526 41,000  Level Jacksonville Center
Wed 10:05:50 PM 31.9236 -80.9147 24° Northeast 457 526 41,000  Level Jacksonville Center
Wed 10:06:50 PM 32.0417 -80.8558 23° Northeast 451 519 41,000  Level Jacksonville Center
Wed 10:07:50 PM 32.1575 -80.7944 24° Northeast 456 525 41,000  Level Jacksonville Center
Wed 10:08:50 PM 32.2569 -80.7431 24° Northeast 455 524 41,000  Level Jacksonville Center
Wed 10:09:50 PM 32.3728 -80.6836 23° Northeast 455 524 41,000  Level Jacksonville Center
Wed 10:10:50 PM 32.4886 -80.6242 23° Northeast 455 524 41,000  Level Jacksonville Center
Wed 10:11:50 PM 32.6064 -80.5622 24° Northeast 455 524 41,000  Level Jacksonville Center
Wed 10:12:50 PM 32.7222 -80.5000 24° Northeast 455 524 41,000  Level Jacksonville Center
Wed 10:13:50 PM 32.8381 -80.4400 24° Northeast 455 524 41,000  Level Jacksonville Center
Wed 10:14:50 PM 32.9722 -80.3694 24° Northeast 469 540 41,000  Level Jacksonville Center
Wed 10:15:50 PM 33.0858 -80.3092 24° Northeast 457 526 41,000  Level Jacksonville Center
Wed 10:16:50 PM 33.2056 -80.2486 23° Northeast 462 532 41,000  Level Jacksonville Center
Wed 10:17:50 PM 33.3233 -80.1856 24° Northeast 456 525 41,000  Level Jacksonville Center
Wed 10:18:50 PM 33.4386 -80.1222 25° Northeast 456 525 41,000  Level Jacksonville Center
Wed 10:19:50 PM 33.5583 -80.0586 24° Northeast 456 525 41,000  Level Jacksonville Center
Wed 10:20:50 PM 33.6717 -79.9978 24° Northeast 456 525 41,000  Level Jacksonville Center
Wed 10:21:50 PM 33.7892 -79.9339 24° Northeast 456 525 41,000  Level Jacksonville Center
Wed 10:22:50 PM 33.9067 -79.8722 24° Northeast 456 525 41,000  Level Jacksonville Center
Wed 10:23:50 PM 34.0242 -79.8081 24° Northeast 456 525 41,000  Level Jacksonville Center
Wed 10:24:50 PM 34.1394 -79.7464 24° Northeast 456 525 41,000  Level Jacksonville Center
Wed 10:26:29 PM 34.3244 -79.6431 25° Northeast 453 521 41,000  Level Washington Center
Wed 10:27:29 PM 34.4433 -79.5808 23° Northeast 453 521 41,000  Level Washington Center
Wed 10:28:30 PM 34.5581 -79.5158 25° Northeast 453 521 41,000  Level Washington Center
Wed 10:29:31 PM 34.6769 -79.4533 23° Northeast 453 521 41,000  Level Washington Center
Wed 10:30:31 PM 34.7939 -79.3906 24° Northeast 453 521 41,000  Level Washington Center
Wed 10:31:29 PM 34.9106 -79.3228 25° Northeast 453 521 41,000  Level Washington Center
Wed 10:32:29 PM 35.0294 -79.2597 23° Northeast 453 521 41,000  Level Washington Center
Wed 10:33:31 PM 35.1461 -79.1939 25° Northeast 453 521 41,000  Level Washington Center
Wed 10:34:31 PM 35.2650 -79.1281 24° Northeast 453 521 41,000  Level Washington Center
Wed 10:35:30 PM 35.3817 -79.0644 24° Northeast 459 528 41,000  Level Washington Center
Wed 10:36:30 PM 35.5025 -78.9981 24° Northeast 459 528 41,000  Level Washington Center
Wed 10:37:31 PM 35.6211 -78.9317 24° Northeast 459 528 41,000  Level Washington Center
Wed 10:38:29 PM 35.7400 -78.8650 24° Northeast 464 534 41,000  Level Washington Center
Wed 10:39:30 PM 35.8567 -78.7956 26° Northeast 464 534 41,000  Level Washington Center
Wed 10:40:30 PM 35.9567 -78.7175 32° Northeast 464 534 41,000  Level Washington Center
Wed 10:41:32 PM 36.0636 -78.6189 37° Northeast 469 540 41,000  Level Washington Center
Wed 10:42:29 PM 36.1703 -78.5228 36° Northeast 474 545 41,000  Level Washington Center
Wed 10:43:31 PM 36.2747 -78.4286 36° Northeast 469 540 41,000  Level Washington Center
Wed 10:44:29 PM 36.3814 -78.3319 36° Northeast 469 540 41,000  Level Washington Center
Wed 10:45:30 PM 36.4836 -78.2347 37° Northeast 469 540 41,000  Level Washington Center
Wed 10:46:31 PM 36.5944 -78.1297 37° Northeast 464 534 41,000  Level Washington Center
Wed 10:47:29 PM 36.6986 -78.0375 35° Northeast 459 528 41,000  Level Washington Center
Wed 10:48:30 PM 36.8006 -77.9419 37° Northeast 459 528 41,000  Level Washington Center
Wed 10:49:30 PM 36.9069 -77.8464 36° Northeast 459 528 41,000  Level Washington Center
Wed 10:50:31 PM 37.0089 -77.7481 38° Northeast 464 534 41,000  Level Washington Center
Wed 10:51:29 PM 37.1106 -77.6544 36° Northeast 464 534 41,000  Level Washington Center
Wed 10:52:30 PM 37.2144 -77.5583 36° Northeast 464 534 41,000  Level Washington Center
Wed 10:53:30 PM 37.3181 -77.4592 37° Northeast 464 534 41,000  Level Washington Center
Wed 10:54:30 PM 37.4197 -77.3672 36° Northeast 464 534 41,000  Level Washington Center
Wed 10:55:31 PM 37.5253 -77.2703 36° Northeast 464 534 41,000  Level Washington Center
Wed 10:56:30 PM 37.6269 -77.1678 39° Northeast 464 534 41,000  Level Washington Center
Wed 10:57:30 PM 37.7283 -77.0725 37° Northeast 464 534 41,000  Level Washington Center
Wed 10:58:31 PM 37.8317 -76.9722 37° Northeast 464 534 41,000  Level Washington Center
Wed 10:59:31 PM 37.9350 -76.8739 37° Northeast 469 540 41,000  Level Washington Center
Wed 11:00:29 PM 38.0381 -76.7756 37° Northeast 469 540 41,000  Level Washington Center
Wed 11:01:31 PM 38.1411 -76.6742 38° Northeast 464 534 41,000  Level Washington Center
Wed 11:02:32 PM 38.2442 -76.5725 38° Northeast 469 540 41,000  Level Washington Center
Wed 11:03:30 PM 38.3344 -76.4892 36° Northeast 459 528 41,000  Level Washington Center
Wed 11:04:31 PM 38.4353 -76.3869 38° Northeast 454 522 41,000  Level Washington Center
Wed 11:05:31 PM 38.5361 -76.2872 38° Northeast 454 522 41,000  Level Washington Center
Wed 11:06:29 PM 38.6389 -76.1897 37° Northeast 459 528 41,000  Level Washington Center
Wed 11:07:30 PM 38.7456 -76.0867 37° Northeast 469 540 41,000  Level Washington Center
Wed 11:08:31 PM 38.8458 -75.9889 37° Northeast 464 534 41,000  Level Washington Center
Wed 11:09:29 PM 38.9464 -75.8853 39° Northeast 464 534 41,000  Level Washington Center
Wed 11:10:29 PM 39.0508 -75.7894 35° Northeast 464 534 41,000  Level Washington Center
Wed 11:11:31 PM 39.1508 -75.6853 39° Northeast 464 534 41,000  Level Washington Center
Wed 11:12:29 PM 39.2508 -75.5836 38° Northeast 464 534 41,000  Level Washington Center
Wed 11:13:31 PM 39.3531 -75.4814 38° Northeast 464 534 41,000  Level Washington Center
Wed 11:14:32 PM 39.4528 -75.3792 38° Northeast 464 534 41,000  Level Washington Center
Wed 11:15:30 PM 39.5547 -75.2767 38° Northeast 464 534 41,000  Level Washington Center
Wed 11:16:29 PM 39.6525 -75.1792 38° Northeast 464 534 41,000  Level Washington Center
Wed 11:17:07 PM 39.7214 -75.1000 41° Northeast 472 543 41,000  Level New York Center
Wed 11:18:05 PM 39.8231 -74.9981 38° Northeast 486 559 41,000  Level New York Center
Wed 11:19:06 PM 39.9100 -74.8953 42° Northeast 474 545 41,000  Level New York Center
Wed 11:20:04 PM 40.0075 -74.7897 40° Northeast 468 539 41,000  Level New York Center
Wed 11:21:05 PM 40.1008 -74.6786 42° Northeast 463 533 41,000 -149 Level New York Center
Wed 11:22:05 PM 40.1961 -74.5725 40° Northeast 451 519 40,700 -1,736 Descending New York Center
Wed 11:23:06 PM 40.3003 -74.4422 44° Northeast 451 519 37,500 -3,074 Descending New York Center
Wed 11:24:06 PM 40.3997 -74.3275 41° Northeast 458 527 34,500 -3,102 Descending New York Center
Wed 11:25:04 PM 40.4947 -74.2125 43° Northeast 458 527 31,400 -2,824 Descending New York Center
Wed 11:26:05 PM 40.5897 -74.0997 42° Northeast 465 535 28,900 -2,410 Descending New York Center
Wed 11:27:06 PM 40.6822 -73.9919 41° Northeast 450 518 26,500 -1,771 Descending New York Center
Wed 11:28:51 PM 40.8269 -73.8197 42° Northeast 422 486 24,000 -909 Descending Boston Center
Wed 11:29:51 PM 40.9136 -73.7144 43° Northeast 417 480 24,000 -350 Level Boston Center
Wed 11:30:51 PM 41.0247 -73.6506 23° Northeast 403 464 23,300 -500 Descending Boston Center
Wed 11:31:51 PM 41.1433 -73.6667 354° North 391 450 23,000 -1,100 Descending Boston Center
Wed 11:32:51 PM 41.2600 -73.6772 356° North 397 457 21,100 -2,350 Descending Boston Center
Wed 11:33:51 PM 41.3744 -73.6906 355° North 403 464 18,300 -1,750 Descending Boston Center
Wed 11:34:51 PM 41.4847 -73.6981 357° North 403 464 17,600 -682 Descending Boston Center
Wed 11:36:03 PM 41.5889 -73.7058 357° North 385 443 16,800 -818 Descending Boston Center
Wed 11:37:03 PM 41.7136 -73.7194 355° North 380 437 15,800 -850 Descending Boston Center
Wed 11:38:03 PM 41.8075 -73.7239 358° North 380 437 15,100 -789 Descending Boston Center
Wed 11:38:19 PM 41.8450 -73.7275 356° North 375 432 14,800 -900 Descending Boston Center
Wed 11:39:03 PM 41.9178 -73.7347 356° North 363 418 14,200 -774 Descending Boston Center
Wed 11:39:21 PM 41.9450 -73.7381 355° North 370 426 14,000 -700 Descending Boston Center
Wed 11:40:03 PM 42.0094 -73.7422 357° North 363 418 13,500 -831 Descending Boston Center
Wed 11:40:26 PM 42.0614 -73.7489 355° North 356 410 13,100 -900 Descending Boston Center
Wed 11:41:03 PM 42.1197 -73.7472 North 357 411 12,600 -873 Descending Boston Center
Wed 11:41:21 PM 42.1447 -73.7506 354° North 355 409 12,300 -1,400 Descending Boston Center
Wed 11:42:03 PM 42.2178 -73.7464 North 352 405 11,200 -1,600 Descending Boston Center
Wed 11:42:21 PM 42.2469 -73.7442 North 342 394 10,700 -1,443 Descending Boston Center
Wed 11:43:22 PM 42.3389 -73.7378 North 322 371 9,300 -1,377 Descending Boston Center
Wed 11:44:23 PM 42.4244 -73.7311 North 305 351 7,900 -1,438 Descending Boston Center
Wed 11:45:23 PM 42.5078 -73.7186 North 302 348 6,400 -1,388 Descending Boston Center
Wed 11:46:24 PM 42.5892 -73.7119 North 296 341 5,100 -1,252 Descending Boston Center
Wed 11:47:18 PM 42.6603 -73.7022 North 278 320 4,000 -626 Descending Boston Center
Wed 11:48:19 PM 42.7311 -73.6922 North 241 277 3,900 -344 Descending Boston Center
Wed 11:49:20 PM 42.7939 -73.6822 North 228 262 3,300 -446 Descending Boston Center
Wed 11:50:20 PM 42.8539 -73.7033 346° North 224 258 3,000 -347 Descending Boston Center
Wed 11:51:21 PM 42.8553 -73.7825 271° West 199 229 2,600 -393 Descending Boston Center

Login

Don't have an account? Register now (free) for customized features, flight alerts, and more!